createdAt,value
2022-11-21T00:00:42.824Z,100596.88
2022-11-21T00:03:10.420Z,100601.63
2022-11-21T00:05:41.552Z,100597.97
2022-11-21T00:08:09.127Z,100593.03
2022-11-21T00:10:36.583Z,100588.41
2022-11-21T00:13:03.484Z,100586.25
2022-11-21T00:15:30.193Z,100584.56
2022-11-21T00:17:56.742Z,100595.25
2022-11-21T00:20:23.570Z,100594.38
2022-11-21T00:22:50.153Z,100593.41
2022-11-21T00:25:17.033Z,100572.69
2022-11-21T00:27:43.509Z,100583.09
2022-11-21T00:30:12.493Z,100584.88
2022-11-21T00:32:39.001Z,100591.59
2022-11-21T00:35:06.753Z,100593.91
2022-11-21T00:37:33.803Z,100597.19
2022-11-21T00:40:00.720Z,100594.38
2022-11-21T00:42:27.301Z,100593.03
2022-11-21T00:44:53.797Z,100595.69
2022-11-21T00:47:20.296Z,100598.47
2022-11-21T00:49:46.801Z,100599.94
2022-11-21T00:52:13.314Z,100604.22
2022-11-21T00:54:39.865Z,100599.44
2022-11-21T00:57:06.336Z,100599.44
2022-11-21T00:59:32.862Z,100593.53
2022-11-21T01:01:59.378Z,100599.63
2022-11-21T01:04:26.415Z,100584.63
2022-11-21T01:06:53.427Z,100598.44
2022-11-21T01:09:19.952Z,100591.19
2022-11-21T01:11:46.490Z,100587.72
2022-11-21T01:14:13.043Z,100592.66
2022-11-21T01:16:39.750Z,100595.09
2022-11-21T01:19:06.498Z,100582.94
2022-11-21T01:21:33.164Z,100583.94
2022-11-21T01:24:01.025Z,100589.03
2022-11-21T01:26:29.921Z,100589.69
2022-11-21T01:28:58.177Z,100585.41
2022-11-21T01:31:27.719Z,100577.97
2022-11-21T01:33:54.771Z,100590.16
2022-11-21T01:36:30.764Z,100586.53
2022-11-21T01:38:59.452Z,100581.28
2022-11-21T01:41:33.387Z,100575.19
2022-11-21T01:44:04.346Z,100579.16
2022-11-21T01:46:30.853Z,100575.22
2022-11-21T01:49:08.170Z,100579.19
2022-11-21T01:51:44.189Z,100576.41
2022-11-21T01:54:17.204Z,100571.19
2022-11-21T01:57:07.012Z,100578.31
2022-11-21T01:59:38.039Z,100582.16
2022-11-21T02:02:07.394Z,100588.41
2022-11-21T02:04:35.340Z,100594.84
2022-11-21T02:07:06.486Z,100588.91
2022-11-21T02:09:36.200Z,100588.28
2022-11-21T02:12:08.257Z,100594.38
2022-11-21T02:14:35.994Z,100595.56
2022-11-21T02:17:06.864Z,100592.13
2022-11-21T02:19:56.489Z,100600.03
2022-11-21T02:22:35.302Z,100595.59
2022-11-21T02:25:07.698Z,100591.66
2022-11-21T02:27:34.690Z,100589.53
2022-11-21T02:30:06.690Z,100582.47
2022-11-21T02:32:42.639Z,100584.59
2022-11-21T02:35:09.522Z,100577.38
2022-11-21T02:37:37.557Z,100577.22
2022-11-21T02:40:09.828Z,100574.25
2022-11-21T02:42:43.055Z,100570.00
2022-11-21T02:45:18.333Z,100563.25
2022-11-21T02:47:45.559Z,100552.22
2022-11-21T02:50:20.145Z,100552.53
2022-11-21T02:52:46.863Z,100542.03
2022-11-21T02:55:15.300Z,100550.09
2022-11-21T02:57:42.512Z,100542.53
2022-11-21T03:00:11.090Z,100553.84
2022-11-21T03:02:38.054Z,100552.41
2022-11-21T03:05:06.489Z,100544.34
2022-11-21T03:07:33.213Z,100551.06
2022-11-21T03:09:59.818Z,100539.44
2022-11-21T03:12:26.340Z,100541.88
2022-11-21T03:14:52.912Z,100537.94
2022-11-21T03:17:19.407Z,100538.63
2022-11-21T03:19:45.918Z,100528.09
2022-11-21T03:22:14.098Z,100539.59
2022-11-21T03:24:40.770Z,100538.59
2022-11-21T03:27:07.334Z,100533.84
2022-11-21T03:29:33.907Z,100525.66
2022-11-21T03:32:00.455Z,100527.16
2022-11-21T03:34:27.818Z,100530.06
2022-11-21T03:36:54.629Z,100530.25
2022-11-21T03:39:21.221Z,100530.72
2022-11-21T03:41:47.731Z,100527.59
2022-11-21T03:44:14.284Z,100523.84
2022-11-21T03:46:43.364Z,100517.41
2022-11-21T03:49:10.707Z,100501.19
2022-11-21T03:51:38.201Z,100504.16
2022-11-21T03:54:05.751Z,100503.66
2022-11-21T03:56:32.562Z,100505.81
2022-11-21T03:58:59.137Z,100518.75
2022-11-21T04:01:26.405Z,100508.25
2022-11-21T04:03:53.186Z,100505.47
2022-11-21T04:06:22.302Z,100506.47
2022-11-21T04:08:49.920Z,100503.69
2022-11-21T04:11:16.789Z,100499.38
2022-11-21T04:13:43.649Z,100490.53
2022-11-21T04:16:10.595Z,100494.97
2022-11-21T04:18:37.547Z,100482.84
2022-11-21T04:21:06.561Z,100478.22
2022-11-21T04:23:33.077Z,100473.78
2022-11-21T04:25:59.675Z,100467.56
2022-11-21T04:28:26.232Z,100463.78
2022-11-21T04:30:55.034Z,100462.31
2022-11-21T04:33:21.882Z,100454.59
2022-11-21T04:35:48.480Z,100456.72
2022-11-21T04:38:15.315Z,100463.59
2022-11-21T04:40:45.270Z,100465.06
2022-11-21T04:43:11.818Z,100464.72
2022-11-21T04:45:38.351Z,100458.97
2022-11-21T04:48:04.968Z,100463.25
2022-11-21T04:50:31.482Z,100462.91
2022-11-21T04:52:58.060Z,100452.59
2022-11-21T04:55:29.398Z,100450.47
2022-11-21T04:57:55.970Z,100438.03
2022-11-21T05:00:24.450Z,100414.41
2022-11-21T05:02:51.615Z,100389.97
2022-11-21T05:05:18.433Z,100369.94
2022-11-21T05:07:44.985Z,100360.41
2022-11-21T05:10:11.736Z,100349.44
2022-11-21T05:12:56.701Z,100344.72
2022-11-21T05:15:24.872Z,100352.59
2022-11-21T05:17:52.068Z,100353.09
2022-11-21T05:20:19.128Z,100352.94
2022-11-21T05:22:49.932Z,100348.34
2022-11-21T05:25:16.724Z,100346.53
2022-11-21T05:27:43.323Z,100344.56
2022-11-21T05:30:11.215Z,100336.84
2022-11-21T05:32:37.866Z,100327.84
2022-11-21T05:35:04.564Z,100326.84
2022-11-21T05:37:31.093Z,100313.06
2022-11-21T05:39:57.674Z,100314.72
2022-11-21T05:42:44.180Z,100294.38
2022-11-21T05:45:10.899Z,100298.16
2022-11-21T05:47:37.454Z,100291.13
2022-11-21T05:50:04.653Z,100284.56
2022-11-21T05:52:31.141Z,100288.81
2022-11-21T05:54:57.693Z,100281.78
2022-11-21T05:57:24.299Z,100284.25
2022-11-21T05:59:50.883Z,100286.03
2022-11-21T06:02:35.902Z,100274.56
2022-11-21T06:05:02.569Z,100267.34
2022-11-21T06:07:29.123Z,100258.31
2022-11-21T06:09:55.631Z,100249.59
2022-11-21T06:12:25.394Z,100243.84
2022-11-21T06:14:52.588Z,100222.66
2022-11-21T06:17:19.575Z,100215.75
2022-11-21T06:19:46.160Z,100220.50
2022-11-21T06:22:12.684Z,100206.09
2022-11-21T06:24:39.191Z,100198.22
2022-11-21T06:27:05.717Z,100195.28
2022-11-21T06:29:32.189Z,100188.94
2022-11-21T06:31:58.687Z,100190.25
2022-11-21T06:34:28.083Z,100189.75
2022-11-21T06:36:54.786Z,100184.47
2022-11-21T06:39:21.311Z,100174.59
2022-11-21T06:41:51.148Z,100172.84
2022-11-21T06:44:20.084Z,100171.69
2022-11-21T06:46:51.011Z,100175.50
2022-11-21T06:49:18.172Z,100179.25
2022-11-21T06:51:44.701Z,100177.47
2022-11-21T06:54:16.241Z,100173.22
2022-11-21T06:56:43.674Z,100169.28
2022-11-21T06:59:10.259Z,100163.25
2022-11-21T07:01:37.010Z,100164.75
2022-11-21T07:04:03.670Z,100164.44
2022-11-21T07:06:30.186Z,100162.03
2022-11-21T07:11:44.111Z,100167.75
2022-11-21T07:14:10.793Z,100166.75
2022-11-21T07:16:37.563Z,100163.31
2022-11-21T07:19:04.320Z,100162.16
2022-11-21T07:21:30.830Z,100160.69
2022-11-21T07:23:57.406Z,100162.03
2022-11-21T07:26:23.987Z,100156.13
2022-11-21T07:28:50.621Z,100161.88
2022-11-21T07:31:17.161Z,100169.25
2022-11-21T07:33:43.828Z,100157.75
2022-11-21T07:36:11.793Z,100161.69
2022-11-21T07:38:38.455Z,100164.97
2022-11-21T07:41:04.958Z,100146.59
2022-11-21T07:43:31.532Z,100145.75
2022-11-21T07:45:58.064Z,100136.91
2022-11-21T07:48:25.860Z,100135.41
2022-11-21T07:50:52.425Z,100143.91
2022-11-21T07:53:18.966Z,100136.38
2022-11-21T07:55:45.507Z,100132.63
2022-11-21T07:58:15.022Z,100137.03
2022-11-21T08:00:43.105Z,100147.84
2022-11-21T08:03:12.171Z,100130.31
2022-11-21T08:05:41.029Z,100139.28
2022-11-21T08:08:08.416Z,100128.47
2022-11-21T08:10:38.616Z,100136.66
2022-11-21T08:13:05.498Z,100136.63
2022-11-21T08:15:32.385Z,100129.84
2022-11-21T08:17:58.933Z,100119.84
2022-11-21T08:20:25.501Z,100119.84
2022-11-21T08:22:52.021Z,100112.78
2022-11-21T08:25:18.603Z,100099.03
2022-11-21T08:27:45.174Z,100103.00
2022-11-21T08:30:12.355Z,100105.44
2022-11-21T08:32:38.897Z,100110.53
2022-11-21T08:35:05.956Z,100108.69
2022-11-21T08:37:32.482Z,100100.81
2022-11-21T08:39:59.062Z,100109.00
2022-11-21T08:42:26.064Z,100107.84
2022-11-21T08:44:52.792Z,100104.53
2022-11-21T08:47:20.672Z,100101.72
2022-11-21T08:49:48.129Z,100096.94
2022-11-21T08:52:17.303Z,100091.94
2022-11-21T08:54:44.860Z,100101.41
2022-11-21T08:57:11.907Z,100087.13
2022-11-21T08:59:38.425Z,100095.47
2022-11-21T09:02:05.096Z,100094.59
2022-11-21T09:04:31.685Z,100094.25
2022-11-21T09:06:58.237Z,100095.38
2022-11-21T09:09:25.754Z,100091.66
2022-11-21T09:11:52.594Z,100093.25
2022-11-21T09:14:37.823Z,100092.16
2022-11-21T09:17:23.030Z,100087.69
2022-11-21T09:19:49.532Z,100082.81
2022-11-21T09:22:16.005Z,100075.31
2022-11-21T09:24:42.544Z,100079.94
2022-11-21T09:27:09.052Z,100086.91
2022-11-21T09:29:35.695Z,100084.03
2022-11-21T09:32:02.244Z,100090.47
2022-11-21T09:34:29.029Z,100081.84
2022-11-21T09:36:56.734Z,100079.75
2022-11-21T09:39:23.295Z,100072.41
2022-11-21T09:41:52.757Z,100060.56
2022-11-21T09:44:56.600Z,100059.81
2022-11-21T09:47:37.185Z,100062.91
2022-11-21T09:50:19.760Z,100065.16
2022-11-21T09:53:22.376Z,100074.31
2022-11-21T09:55:59.444Z,100077.84
2022-11-21T09:58:37.851Z,100065.56
2022-11-21T10:01:04.621Z,100066.00
2022-11-21T10:03:39.885Z,100070.94
2022-11-21T10:06:14.274Z,100069.00
2022-11-21T10:08:55.523Z,100069.94
2022-11-21T10:12:08.114Z,100074.00
2022-11-21T10:15:08.771Z,100066.47
2022-11-21T10:18:01.103Z,100053.47
2022-11-21T10:20:44.257Z,100048.88
2022-11-21T10:23:33.683Z,100040.94
2022-11-21T10:26:17.355Z,100045.28
2022-11-21T10:28:59.111Z,100044.03
2022-11-21T10:31:30.659Z,100042.44
2022-11-21T10:33:58.988Z,100035.50
2022-11-21T10:36:37.824Z,100035.63
2022-11-21T10:39:54.036Z,100028.69
2022-11-21T10:42:48.651Z,100032.47
2022-11-21T10:45:19.270Z,100019.44
2022-11-21T10:47:53.344Z,100018.78
2022-11-21T10:50:45.158Z,100013.47
2022-11-21T10:53:37.233Z,100007.31
2022-11-21T10:56:12.624Z,100016.38
2022-11-21T10:58:48.434Z,100009.63
2022-11-21T11:01:31.343Z,100015.69
2022-11-21T11:06:57.520Z,100012.50
2022-11-21T11:09:32.440Z,100017.94
2022-11-21T11:12:47.295Z,100007.78
2022-11-21T11:15:25.578Z,99997.00
2022-11-21T11:18:08.824Z,100000.25
2022-11-21T11:20:42.450Z,99981.53
2022-11-21T11:23:21.077Z,99966.19
2022-11-21T11:25:50.247Z,99965.88
2022-11-21T11:28:19.253Z,99950.69
2022-11-21T11:30:48.085Z,99946.84
2022-11-21T11:33:47.146Z,99933.31
2022-11-21T11:36:19.338Z,99926.41
2022-11-21T11:38:53.790Z,99919.06
2022-11-21T11:41:30.386Z,99922.13
2022-11-21T11:45:03.758Z,99915.25
2022-11-21T11:47:39.446Z,99908.13
2022-11-21T11:50:17.328Z,99905.84
2022-11-21T11:53:20.618Z,99882.53
2022-11-21T11:55:54.912Z,99875.81
2022-11-21T11:58:50.753Z,99884.69
2022-11-21T12:01:41.180Z,99885.91
2022-11-21T12:04:18.039Z,99868.66
2022-11-21T12:10:16.605Z,99868.41
2022-11-21T12:12:49.515Z,99860.31
2022-11-21T12:15:43.616Z,99855.25
2022-11-21T12:18:16.236Z,99856.47
2022-11-21T12:20:51.033Z,99851.38
2022-11-21T12:23:18.784Z,99848.38
2022-11-21T12:25:56.615Z,99838.81
2022-11-21T12:29:14.740Z,99836.59
2022-11-21T12:32:00.773Z,99822.84
2022-11-21T12:34:39.564Z,99827.09
2022-11-21T12:37:36.756Z,99822.25
2022-11-21T12:40:13.269Z,99812.13
2022-11-21T12:43:01.360Z,99794.06
2022-11-21T12:45:37.533Z,99783.53
2022-11-21T12:48:37.413Z,99777.66
2022-11-21T12:51:34.437Z,99777.28
2022-11-21T12:54:32.096Z,99764.31
2022-11-21T12:57:21.468Z,99760.25
2022-11-21T13:00:04.336Z,99744.44
2022-11-21T13:03:08.714Z,99744.03
2022-11-21T13:05:41.834Z,99742.78
2022-11-21T13:08:13.160Z,99737.50
2022-11-21T13:10:47.588Z,99729.00
2022-11-21T13:13:31.739Z,99722.09
2022-11-21T13:16:06.566Z,99712.78
2022-11-21T13:18:43.997Z,99712.97
2022-11-21T13:21:42.738Z,99706.50
2022-11-21T13:24:09.605Z,99702.25
2022-11-21T13:26:36.555Z,99697.78
2022-11-21T13:29:11.275Z,99693.53
2022-11-21T13:31:38.179Z,99680.16
2022-11-21T13:34:05.840Z,99681.13
2022-11-21T13:36:32.318Z,99678.13
2022-11-21T13:38:58.869Z,99676.28
2022-11-21T13:42:24.657Z,99670.81
2022-11-21T13:44:51.665Z,99661.31
2022-11-21T13:47:48.840Z,99656.66
2022-11-21T13:50:34.079Z,99641.47
2022-11-21T13:53:27.844Z,99641.03
2022-11-21T13:55:59.199Z,99633.34
2022-11-21T13:58:39.504Z,99636.16
2022-11-21T14:01:43.289Z,99621.56
2022-11-21T14:04:21.884Z,99611.03
2022-11-21T14:06:48.632Z,99600.88
2022-11-21T14:09:36.375Z,99591.75
2022-11-21T14:12:08.239Z,99570.06
2022-11-21T14:14:36.802Z,99553.66
2022-11-21T14:17:14.058Z,99526.28
2022-11-21T14:19:42.058Z,99520.22
2022-11-21T14:22:33.415Z,99513.31
2022-11-21T14:25:06.969Z,99492.47
2022-11-21T14:27:44.887Z,99477.47
2022-11-21T14:30:32.465Z,99474.84
2022-11-21T14:33:23.227Z,99472.59
2022-11-21T14:35:57.777Z,99480.91
2022-11-21T14:38:24.372Z,99470.97
2022-11-21T14:40:51.451Z,99474.22
2022-11-21T14:43:47.284Z,99465.69
2022-11-21T14:46:21.064Z,99466.72
2022-11-21T14:48:47.763Z,99469.78
2022-11-21T14:51:20.501Z,99463.88
2022-11-21T14:53:48.771Z,99454.94
2022-11-21T14:56:27.266Z,99460.22
2022-11-21T14:58:55.658Z,99454.94
2022-11-21T15:01:25.885Z,99449.06
2022-11-21T15:04:01.312Z,99445.63
2022-11-21T15:06:33.637Z,99438.94
2022-11-21T15:10:05.716Z,99424.97
2022-11-21T15:11:52.975Z,99432.28
2022-11-21T15:14:22.761Z,99423.97
2022-11-21T15:16:52.848Z,99413.84
2022-11-21T15:19:29.731Z,99409.78
2022-11-21T15:21:58.248Z,99408.16
2022-11-21T15:24:42.395Z,99404.72
2022-11-21T15:27:27.232Z,99394.16
2022-11-21T15:30:24.218Z,99402.91
2022-11-21T15:33:18.023Z,99398.44
2022-11-21T15:35:44.585Z,99394.78
2022-11-21T15:38:16.851Z,99389.91
2022-11-21T15:41:03.777Z,99384.44
2022-11-21T15:43:39.639Z,99360.53
2022-11-21T15:46:25.402Z,99360.72
2022-11-21T15:48:56.644Z,99351.59
2022-11-21T15:54:32.351Z,99324.66
2022-11-21T15:56:59.082Z,99320.41
2022-11-21T15:57:14.293Z,99336.59
2022-11-21T15:59:25.616Z,99313.53
2022-11-21T16:01:52.836Z,99314.53
2022-11-21T16:04:25.097Z,99301.78
2022-11-21T16:06:52.268Z,99293.88
2022-11-21T16:09:18.753Z,99289.00
2022-11-21T16:11:45.239Z,99269.13
2022-11-21T16:14:18.241Z,99251.28
2022-11-21T16:16:45.372Z,99255.56
2022-11-21T16:19:12.908Z,99261.06
2022-11-21T16:21:39.976Z,99258.84
2022-11-21T16:24:06.848Z,99250.94
2022-11-21T16:26:34.012Z,99232.91
2022-11-21T16:29:01.484Z,99212.88
2022-11-21T16:31:30.582Z,99194.88
2022-11-21T16:33:58.035Z,99151.72
2022-11-21T16:36:29.285Z,99115.06
2022-11-21T16:39:00.437Z,99071.75
2022-11-21T16:41:30.188Z,99031.06
2022-11-21T16:43:56.709Z,99010.00
2022-11-21T16:46:24.696Z,98993.84
2022-11-21T16:49:11.517Z,98970.13
2022-11-21T16:51:38.110Z,98967.13
2022-11-21T16:54:08.808Z,98957.63
2022-11-21T16:56:36.025Z,98945.25
2022-11-21T16:59:02.926Z,98939.19
2022-11-21T17:01:29.590Z,98936.75
2022-11-21T17:03:56.347Z,98921.19
2022-11-21T17:06:27.025Z,98909.66
2022-11-21T17:08:53.834Z,98894.28
2022-11-21T17:11:31.393Z,98875.03
2022-11-21T17:14:03.601Z,98881.31
2022-11-21T17:16:31.338Z,98867.38
2022-11-21T17:19:00.059Z,98866.34
2022-11-21T17:21:28.436Z,98868.97
2022-11-21T17:23:55.124Z,98852.19
2022-11-21T17:26:24.804Z,98856.03
2022-11-21T17:28:58.347Z,98844.91
2022-11-21T17:31:25.987Z,98840.66
2022-11-21T17:33:54.330Z,98834.81
2022-11-21T17:36:23.541Z,98835.84
2022-11-21T17:38:50.099Z,98823.31
2022-11-21T17:41:19.751Z,98809.38
2022-11-21T17:43:47.283Z,98806.97
2022-11-21T17:46:16.902Z,98804.09
2022-11-21T17:48:48.468Z,98796.44
2022-11-21T17:51:21.442Z,98795.63
2022-11-21T17:53:49.836Z,98780.84
2022-11-21T17:56:18.830Z,98792.16
2022-11-21T17:58:45.542Z,98773.31
2022-11-21T18:01:18.870Z,98771.72
2022-11-21T18:03:47.103Z,98775.59
2022-11-21T18:06:16.234Z,98766.06
2022-11-21T18:08:44.795Z,98753.13
2022-11-21T18:11:13.335Z,98763.28
2022-11-21T18:13:41.061Z,98759.06
2022-11-21T18:16:10.299Z,98765.91
2022-11-21T18:18:37.701Z,98743.28
2022-11-21T18:21:09.509Z,98745.91
2022-11-21T18:23:36.549Z,98733.19
2022-11-21T18:26:11.113Z,98729.75
2022-11-21T18:28:37.660Z,98727.94
2022-11-21T18:31:12.110Z,98712.13
2022-11-21T18:33:39.749Z,98712.13
2022-11-21T18:36:08.255Z,98704.25
2022-11-21T18:38:58.498Z,98706.06
2022-11-21T18:41:25.639Z,98685.25
2022-11-21T18:44:00.487Z,98683.38
2022-11-21T18:46:28.808Z,98679.16
2022-11-21T18:49:06.310Z,98686.63
2022-11-21T18:51:34.454Z,98675.31
2022-11-21T18:54:08.122Z,98671.66
2022-11-21T18:56:36.639Z,98663.97
2022-11-21T18:59:05.636Z,98647.59
2022-11-21T19:01:33.764Z,98648.41
2022-11-21T19:04:00.488Z,98630.00
2022-11-21T19:06:27.889Z,98631.22
2022-11-21T19:08:55.905Z,98631.00
2022-11-21T19:11:27.045Z,98629.19
2022-11-21T19:13:55.061Z,98618.22
2022-11-21T19:16:26.585Z,98614.44
2022-11-21T19:21:43.618Z,98601.69
2022-11-21T19:24:14.423Z,98603.91
2022-11-21T19:26:41.606Z,98588.34
2022-11-21T19:29:08.719Z,98591.97
2022-11-21T19:31:39.286Z,98588.75
2022-11-21T19:34:09.514Z,98590.16
2022-11-21T19:36:38.903Z,98573.78
2022-11-21T19:39:05.418Z,98582.88
2022-11-21T19:41:31.923Z,98581.00
2022-11-21T19:43:59.905Z,98594.97
2022-11-21T19:46:28.676Z,98589.50
2022-11-21T19:48:56.517Z,98587.69
2022-11-21T19:51:28.740Z,98588.50
2022-11-21T19:53:55.419Z,98597.38
2022-11-21T19:56:24.333Z,98585.88
2022-11-21T19:58:51.681Z,98577.38
2022-11-21T20:01:21.813Z,98580.00
2022-11-21T20:03:51.337Z,98573.13
2022-11-21T20:06:31.326Z,98581.81
2022-11-21T20:09:00.878Z,98579.78
2022-11-21T20:11:30.361Z,98566.63
2022-11-21T20:13:57.184Z,98569.03
2022-11-21T20:16:32.321Z,98574.06
2022-11-21T20:19:01.790Z,98585.63
2022-11-21T20:21:29.324Z,98589.06
2022-11-21T20:23:57.547Z,98575.91
2022-11-21T20:26:25.291Z,98571.44
2022-11-21T20:28:53.177Z,98571.22
2022-11-21T20:31:22.810Z,98579.94
2022-11-21T20:33:50.985Z,98581.97
2022-11-21T20:36:22.925Z,98573.63
2022-11-21T20:39:13.066Z,98573.03
2022-11-21T20:41:41.448Z,98562.31
2022-11-21T20:47:03.152Z,98553.19
2022-11-21T20:49:29.956Z,98546.72
2022-11-21T20:54:43.305Z,98549.31
2022-11-21T20:57:14.836Z,98539.78
2022-11-21T20:59:41.565Z,98546.09
2022-11-21T21:02:12.214Z,98548.28
2022-11-21T21:04:39.079Z,98551.94
2022-11-21T21:07:05.641Z,98555.59
2022-11-21T21:09:32.379Z,98559.84
2022-11-21T21:11:58.935Z,98566.03
2022-11-21T21:14:25.466Z,98573.13
2022-11-21T21:16:52.034Z,98574.28
2022-11-21T21:19:19.088Z,98575.09
2022-11-21T21:21:45.751Z,98577.06
2022-11-21T21:24:13.200Z,98582.44
2022-11-21T21:26:44.710Z,98587.50
2022-11-21T21:29:12.946Z,98579.16
2022-11-21T21:31:41.775Z,98576.97
2022-11-21T21:34:12.057Z,98572.75
2022-11-21T21:36:38.577Z,98572.75
2022-11-21T21:39:05.157Z,98576.59
2022-11-21T21:41:32.420Z,98578.22
2022-11-21T21:43:59.078Z,98577.28
2022-11-21T21:46:27.721Z,98582.75
2022-11-21T21:48:56.602Z,98588.03
2022-11-21T21:51:25.585Z,98583.56
2022-11-21T21:53:53.167Z,98586.22
2022-11-21T21:56:20.869Z,98580.13
2022-11-21T21:58:48.788Z,98584.72
2022-11-21T22:01:24.000Z,98580.03
2022-11-21T22:03:55.538Z,98591.16
2022-11-21T22:06:22.446Z,98595.63
2022-11-21T22:08:50.353Z,98593.22
2022-11-21T22:11:25.224Z,98595.47
2022-11-21T22:13:54.547Z,98594.09
2022-11-21T22:16:21.329Z,98594.19
2022-11-21T22:18:47.904Z,98597.81
2022-11-21T22:21:17.262Z,98592.63
2022-11-21T22:24:02.875Z,98580.75
2022-11-21T22:26:31.975Z,98579.78
2022-11-21T22:28:58.458Z,98583.09
2022-11-21T22:31:25.121Z,98586.13
2022-11-21T22:33:51.685Z,98579.28
2022-11-21T22:36:18.832Z,98593.88
2022-11-21T22:38:45.829Z,98598.91
2022-11-21T22:41:18.214Z,98590.47
2022-11-21T22:43:48.789Z,98597.91
2022-11-21T22:46:15.293Z,98593.72
2022-11-21T22:48:41.802Z,98598.84
2022-11-21T22:51:08.952Z,98590.53
2022-11-21T22:53:39.892Z,98591.75
2022-11-21T22:56:10.044Z,98595.88
2022-11-21T22:58:38.962Z,98595.72
2022-11-21T23:01:18.706Z,98592.13
2022-11-21T23:03:45.485Z,98587.69
2022-11-21T23:06:17.020Z,98607.31
2022-11-21T23:08:44.208Z,98613.22
2022-11-21T23:11:15.001Z,98605.94
2022-11-21T23:13:43.090Z,98615.63
2022-11-21T23:16:10.502Z,98609.19
2022-11-21T23:18:37.252Z,98599.69
2022-11-21T23:21:04.661Z,98602.41
2022-11-21T23:23:31.416Z,98597.94
2022-11-21T23:25:58.247Z,98609.47
2022-11-21T23:28:24.910Z,98611.94
2022-11-21T23:30:51.580Z,98615.44
2022-11-21T23:33:18.503Z,98610.84
2022-11-21T23:35:46.357Z,98620.97
2022-11-21T23:38:14.880Z,98622.78
2022-11-21T23:40:41.672Z,98628.84
2022-11-21T23:43:08.311Z,98643.44
2022-11-21T23:45:34.863Z,98639.03
2022-11-21T23:48:01.377Z,98647.91
2022-11-21T23:50:27.948Z,98647.69
2022-11-21T23:52:54.489Z,98643.44
2022-11-21T23:55:21.032Z,98646.88
2022-11-21T23:57:48.669Z,98646.28
